sensor_id;sensor_type;location;lat;lon;timestamp;P1;durP1;ratioP1;P2;durP2;ratioP2
53261;SDS011;39658;51.090;-1.786;2022-07-21T00:01:18;9.40;;;2.38;;
53261;SDS011;39658;51.090;-1.786;2022-07-21T00:03:45;7.18;;;2.28;;
53261;SDS011;39658;51.090;-1.786;2022-07-21T00:06:12;8.18;;;1.98;;
53261;SDS011;39658;51.090;-1.786;2022-07-21T00:08:39;6.60;;;1.85;;
53261;SDS011;39658;51.090;-1.786;2022-07-21T00:11:07;7.35;;;1.70;;
53261;SDS011;39658;51.090;-1.786;2022-07-21T00:13:34;7.00;;;1.98;;
53261;SDS011;39658;51.090;-1.786;2022-07-21T00:16:01;7.30;;;2.10;;
53261;SDS011;39658;51.090;-1.786;2022-07-21T00:18:27;10.77;;;2.25;;
53261;SDS011;39658;51.090;-1.786;2022-07-21T00:20:54;7.43;;;2.30;;
53261;SDS011;39658;51.090;-1.786;2022-07-21T00:23:22;6.75;;;1.80;;
53261;SDS011;39658;51.090;-1.786;2022-07-21T00:25:49;4.72;;;1.50;;
53261;SDS011;39658;51.090;-1.786;2022-07-21T00:28:17;5.63;;;1.90;;
53261;SDS011;39658;51.090;-1.786;2022-07-21T00:30:45;6.07;;;1.58;;
53261;SDS011;39658;51.090;-1.786;2022-07-21T00:33:12;5.03;;;1.30;;
53261;SDS011;39658;51.090;-1.786;2022-07-21T00:35:38;6.07;;;1.70;;
53261;SDS011;39658;51.090;-1.786;2022-07-21T00:38:06;4.47;;;1.40;;
53261;SDS011;39658;51.090;-1.786;2022-07-21T00:40:32;5.68;;;1.50;;
53261;SDS011;39658;51.090;-1.786;2022-07-21T00:42:59;5.22;;;1.42;;
53261;SDS011;39658;51.090;-1.786;2022-07-21T00:45:27;4.53;;;1.23;;
53261;SDS011;39658;51.090;-1.786;2022-07-21T00:47:54;4.53;;;1.20;;
53261;SDS011;39658;51.090;-1.786;2022-07-21T00:50:21;8.90;;;1.42;;
53261;SDS011;39658;51.090;-1.786;2022-07-21T00:52:48;5.60;;;1.40;;
53261;SDS011;39658;51.090;-1.786;2022-07-21T00:55:17;7.97;;;1.50;;
53261;SDS011;39658;51.090;-1.786;2022-07-21T00:57:45;6.20;;;1.60;;
53261;SDS011;39658;51.090;-1.786;2022-07-21T01:00:14;4.68;;;1.73;;
53261;SDS011;39658;51.090;-1.786;2022-07-21T01:02:44;4.85;;;1.30;;
53261;SDS011;39658;51.090;-1.786;2022-07-21T01:05:12;6.00;;;1.40;;
53261;SDS011;39658;51.090;-1.786;2022-07-21T01:07:40;3.92;;;1.20;;
53261;SDS011;39658;51.090;-1.786;2022-07-21T01:10:08;5.07;;;1.27;;
53261;SDS011;39658;51.090;-1.786;2022-07-21T01:12:36;5.78;;;1.50;;
53261;SDS011;39658;51.090;-1.786;2022-07-21T01:15:03;7.65;;;1.50;;
53261;SDS011;39658;51.090;-1.786;2022-07-21T01:17:31;6.70;;;1.48;;
53261;SDS011;39658;51.090;-1.786;2022-07-21T01:20:00;7.00;;;1.50;;
53261;SDS011;39658;51.090;-1.786;2022-07-21T01:22:31;7.38;;;1.30;;
53261;SDS011;39658;51.090;-1.786;2022-07-21T01:24:58;5.25;;;1.40;;
53261;SDS011;39658;51.090;-1.786;2022-07-21T01:27:25;5.70;;;1.50;;
53261;SDS011;39658;51.090;-1.786;2022-07-21T01:29:52;5.35;;;1.30;;
53261;SDS011;39658;51.090;-1.786;2022-07-21T01:32:19;5.35;;;1.10;;
53261;SDS011;39658;51.090;-1.786;2022-07-21T01:34:46;7.40;;;1.48;;
53261;SDS011;39658;51.090;-1.786;2022-07-21T01:37:13;6.73;;;1.30;;
53261;SDS011;39658;51.090;-1.786;2022-07-21T01:39:41;3.70;;;1.33;;
53261;SDS011;39658;51.090;-1.786;2022-07-21T01:42:25;9.27;;;1.33;;
53261;SDS011;39658;51.090;-1.786;2022-07-21T01:44:52;6.43;;;1.30;;
53261;SDS011;39658;51.090;-1.786;2022-07-21T01:47:19;5.65;;;1.30;;
53261;SDS011;39658;51.090;-1.786;2022-07-21T01:49:48;7.03;;;1.33;;
53261;SDS011;39658;51.090;-1.786;2022-07-21T01:52:15;3.42;;;0.93;;
53261;SDS011;39658;51.090;-1.786;2022-07-21T01:54:43;6.95;;;1.33;;
53261;SDS011;39658;51.090;-1.786;2022-07-21T01:57:09;6.00;;;1.30;;
53261;SDS011;39658;51.090;-1.786;2022-07-21T01:59:36;5.00;;;1.23;;
53261;SDS011;39658;51.090;-1.786;2022-07-21T02:02:03;7.00;;;1.45;;
53261;SDS011;39658;51.090;-1.786;2022-07-21T02:04:30;5.10;;;1.40;;
53261;SDS011;39658;51.090;-1.786;2022-07-21T02:06:59;6.13;;;1.30;;
53261;SDS011;39658;51.090;-1.786;2022-07-21T02:09:26;5.63;;;1.40;;
53261;SDS011;39658;51.090;-1.786;2022-07-21T02:11:54;7.40;;;1.48;;
53261;SDS011;39658;51.090;-1.786;2022-07-21T02:14:21;6.57;;;1.17;;
53261;SDS011;39658;51.090;-1.786;2022-07-21T02:16:48;7.07;;;1.35;;
53261;SDS011;39658;51.090;-1.786;2022-07-21T02:19:14;7.35;;;1.30;;
53261;SDS011;39658;51.090;-1.786;2022-07-21T02:21:41;4.85;;;1.63;;
53261;SDS011;39658;51.090;-1.786;2022-07-21T02:24:08;6.88;;;1.30;;
53261;SDS011;39658;51.090;-1.786;2022-07-21T02:26:34;7.00;;;1.55;;
53261;SDS011;39658;51.090;-1.786;2022-07-21T02:29:03;5.20;;;1.10;;
53261;SDS011;39658;51.090;-1.786;2022-07-21T02:31:29;5.53;;;1.20;;
53261;SDS011;39658;51.090;-1.786;2022-07-21T02:33:56;6.07;;;1.33;;
53261;SDS011;39658;51.090;-1.786;2022-07-21T02:36:23;7.20;;;1.50;;
53261;SDS011;39658;51.090;-1.786;2022-07-21T02:38:50;5.05;;;1.33;;
53261;SDS011;39658;51.090;-1.786;2022-07-21T02:41:16;6.68;;;1.27;;
53261;SDS011;39658;51.090;-1.786;2022-07-21T02:43:43;7.93;;;1.57;;
53261;SDS011;39658;51.090;-1.786;2022-07-21T02:46:12;5.30;;;1.40;;
53261;SDS011;39658;51.090;-1.786;2022-07-21T02:48:38;7.93;;;1.63;;
53261;SDS011;39658;51.090;-1.786;2022-07-21T02:51:05;13.73;;;1.67;;
53261;SDS011;39658;51.090;-1.786;2022-07-21T02:53:32;6.50;;;1.40;;
53261;SDS011;39658;51.090;-1.786;2022-07-21T02:55:59;7.10;;;1.50;;
53261;SDS011;39658;51.090;-1.786;2022-07-21T02:58:26;6.93;;;1.50;;
53261;SDS011;39658;51.090;-1.786;2022-07-21T03:00:56;6.90;;;1.45;;
53261;SDS011;39658;51.090;-1.786;2022-07-21T03:03:26;5.93;;;1.42;;
53261;SDS011;39658;51.090;-1.786;2022-07-21T03:05:54;6.53;;;1.42;;
53261;SDS011;39658;51.090;-1.786;2022-07-21T03:08:22;5.10;;;1.38;;
53261;SDS011;39658;51.090;-1.786;2022-07-21T03:10:50;4.82;;;1.20;;
53261;SDS011;39658;51.090;-1.786;2022-07-21T03:13:17;7.55;;;1.65;;
53261;SDS011;39658;51.090;-1.786;2022-07-21T03:15:44;10.43;;;1.58;;
53261;SDS011;39658;51.090;-1.786;2022-07-21T03:18:11;5.80;;;1.60;;
53261;SDS011;39658;51.090;-1.786;2022-07-21T03:20:40;7.65;;;1.50;;
53261;SDS011;39658;51.090;-1.786;2022-07-21T03:23:08;3.88;;;1.15;;
53261;SDS011;39658;51.090;-1.786;2022-07-21T03:25:35;5.60;;;1.60;;
53261;SDS011;39658;51.090;-1.786;2022-07-21T03:28:02;10.40;;;1.70;;
53261;SDS011;39658;51.090;-1.786;2022-07-21T03:30:30;4.70;;;1.30;;
53261;SDS011;39658;51.090;-1.786;2022-07-21T03:32:57;5.22;;;1.42;;
53261;SDS011;39658;51.090;-1.786;2022-07-21T03:35:24;5.38;;;1.38;;
53261;SDS011;39658;51.090;-1.786;2022-07-21T03:37:52;5.90;;;1.50;;
53261;SDS011;39658;51.090;-1.786;2022-07-21T03:40:21;7.05;;;1.75;;
53261;SDS011;39658;51.090;-1.786;2022-07-21T03:42:49;6.07;;;1.38;;
53261;SDS011;39658;51.090;-1.786;2022-07-21T03:45:16;8.85;;;1.58;;
53261;SDS011;39658;51.090;-1.786;2022-07-21T03:47:43;6.78;;;1.70;;
53261;SDS011;39658;51.090;-1.786;2022-07-21T03:50:10;5.35;;;1.60;;
53261;SDS011;39658;51.090;-1.786;2022-07-21T03:52:38;5.20;;;1.50;;
53261;SDS011;39658;51.090;-1.786;2022-07-21T03:55:06;6.27;;;1.77;;
53261;SDS011;39658;51.090;-1.786;2022-07-21T03:57:40;5.53;;;1.70;;
53261;SDS011;39658;51.090;-1.786;2022-07-21T04:00:09;5.97;;;1.50;;
53261;SDS011;39658;51.090;-1.786;2022-07-21T04:02:38;8.77;;;1.80;;
53261;SDS011;39658;51.090;-1.786;2022-07-21T04:05:07;5.95;;;1.65;;
53261;SDS011;39658;51.090;-1.786;2022-07-21T04:07:36;5.68;;;1.30;;
53261;SDS011;39658;51.090;-1.786;2022-07-21T04:10:03;9.63;;;2.03;;
53261;SDS011;39658;51.090;-1.786;2022-07-21T04:12:31;13.43;;;2.00;;
53261;SDS011;39658;51.090;-1.786;2022-07-21T04:14:58;8.80;;;1.70;;
53261;SDS011;39658;51.090;-1.786;2022-07-21T04:17:25;6.13;;;1.80;;
53261;SDS011;39658;51.090;-1.786;2022-07-21T04:19:52;8.55;;;1.77;;
53261;SDS011;39658;51.090;-1.786;2022-07-21T04:22:18;6.13;;;1.70;;
53261;SDS011;39658;51.090;-1.786;2022-07-21T04:24:45;6.18;;;1.70;;
53261;SDS011;39658;51.090;-1.786;2022-07-21T04:27:12;8.43;;;1.95;;
53261;SDS011;39658;51.090;-1.786;2022-07-21T04:29:40;9.15;;;2.10;;
53261;SDS011;39658;51.090;-1.786;2022-07-21T04:32:07;11.18;;;2.08;;
53261;SDS011;39658;51.090;-1.786;2022-07-21T04:34:34;8.20;;;1.90;;
53261;SDS011;39658;51.090;-1.786;2022-07-21T04:37:00;8.50;;;2.28;;
53261;SDS011;39658;51.090;-1.786;2022-07-21T04:39:27;7.10;;;2.15;;
53261;SDS011;39658;51.090;-1.786;2022-07-21T04:41:54;9.25;;;2.20;;
53261;SDS011;39658;51.090;-1.786;2022-07-21T04:44:21;10.60;;;2.60;;
53261;SDS011;39658;51.090;-1.786;2022-07-21T04:46:50;8.43;;;2.10;;
53261;SDS011;39658;51.090;-1.786;2022-07-21T04:49:16;8.38;;;2.38;;
53261;SDS011;39658;51.090;-1.786;2022-07-21T04:51:43;10.07;;;2.40;;
53261;SDS011;39658;51.090;-1.786;2022-07-21T04:54:10;8.63;;;2.47;;
53261;SDS011;39658;51.090;-1.786;2022-07-21T04:56:39;6.88;;;2.30;;
53261;SDS011;39658;51.090;-1.786;2022-07-21T04:59:06;8.97;;;2.83;;
53261;SDS011;39658;51.090;-1.786;2022-07-21T05:01:33;8.10;;;2.20;;
53261;SDS011;39658;51.090;-1.786;2022-07-21T05:04:01;7.95;;;2.42;;
53261;SDS011;39658;51.090;-1.786;2022-07-21T05:06:28;9.60;;;2.80;;
53261;SDS011;39658;51.090;-1.786;2022-07-21T05:08:55;9.73;;;2.85;;
53261;SDS011;39658;51.090;-1.786;2022-07-21T05:11:22;8.52;;;2.63;;
53261;SDS011;39658;51.090;-1.786;2022-07-21T05:13:48;8.15;;;2.80;;
53261;SDS011;39658;51.090;-1.786;2022-07-21T05:16:15;9.02;;;2.75;;
53261;SDS011;39658;51.090;-1.786;2022-07-21T05:18:42;11.48;;;3.05;;
53261;SDS011;39658;51.090;-1.786;2022-07-21T05:21:10;7.97;;;2.78;;
53261;SDS011;39658;51.090;-1.786;2022-07-21T05:23:37;12.90;;;3.25;;
53261;SDS011;39658;51.090;-1.786;2022-07-21T05:26:04;9.45;;;2.88;;
53261;SDS011;39658;51.090;-1.786;2022-07-21T05:28:31;9.50;;;2.75;;
53261;SDS011;39658;51.090;-1.786;2022-07-21T05:30:57;10.45;;;2.92;;
53261;SDS011;39658;51.090;-1.786;2022-07-21T05:33:24;12.20;;;2.83;;
53261;SDS011;39658;51.090;-1.786;2022-07-21T05:35:51;9.27;;;3.10;;
53261;SDS011;39658;51.090;-1.786;2022-07-21T05:38:19;8.45;;;2.88;;
53261;SDS011;39658;51.090;-1.786;2022-07-21T05:40:47;14.63;;;3.03;;
53261;SDS011;39658;51.090;-1.786;2022-07-21T05:43:14;10.63;;;3.05;;
53261;SDS011;39658;51.090;-1.786;2022-07-21T05:45:41;9.52;;;3.15;;
53261;SDS011;39658;51.090;-1.786;2022-07-21T05:48:07;9.82;;;3.13;;
53261;SDS011;39658;51.090;-1.786;2022-07-21T05:50:34;10.65;;;2.88;;
53261;SDS011;39658;51.090;-1.786;2022-07-21T05:53:01;9.02;;;2.67;;
53261;SDS011;39658;51.090;-1.786;2022-07-21T05:55:29;7.82;;;2.80;;
53261;SDS011;39658;51.090;-1.786;2022-07-21T05:57:56;9.40;;;3.30;;
53261;SDS011;39658;51.090;-1.786;2022-07-21T06:00:22;12.20;;;2.85;;
53261;SDS011;39658;51.090;-1.786;2022-07-21T06:02:49;8.47;;;2.53;;
53261;SDS011;39658;51.090;-1.786;2022-07-21T06:05:16;9.73;;;2.88;;
53261;SDS011;39658;51.090;-1.786;2022-07-21T06:07:43;7.38;;;2.65;;
53261;SDS011;39658;51.090;-1.786;2022-07-21T06:10:09;8.48;;;2.67;;
53261;SDS011;39658;51.090;-1.786;2022-07-21T06:12:38;10.77;;;2.60;;
53261;SDS011;39658;51.090;-1.786;2022-07-21T06:15:05;10.68;;;2.88;;
53261;SDS011;39658;51.090;-1.786;2022-07-21T06:17:37;8.75;;;2.28;;
53261;SDS011;39658;51.090;-1.786;2022-07-21T06:20:05;9.20;;;2.53;;
53261;SDS011;39658;51.090;-1.786;2022-07-21T06:22:33;8.60;;;2.35;;
53261;SDS011;39658;51.090;-1.786;2022-07-21T06:25:00;12.18;;;2.40;;
53261;SDS011;39658;51.090;-1.786;2022-07-21T06:27:26;8.15;;;2.47;;
53261;SDS011;39658;51.090;-1.786;2022-07-21T06:29:55;9.48;;;2.90;;
53261;SDS011;39658;51.090;-1.786;2022-07-21T06:32:22;6.95;;;2.63;;
53261;SDS011;39658;51.090;-1.786;2022-07-21T06:34:48;10.82;;;2.90;;
53261;SDS011;39658;51.090;-1.786;2022-07-21T06:37:15;12.65;;;2.58;;
53261;SDS011;39658;51.090;-1.786;2022-07-21T06:39:42;14.38;;;2.50;;
53261;SDS011;39658;51.090;-1.786;2022-07-21T06:42:09;8.13;;;2.33;;
53261;SDS011;39658;51.090;-1.786;2022-07-21T06:44:36;7.43;;;2.00;;
53261;SDS011;39658;51.090;-1.786;2022-07-21T06:47:04;10.25;;;2.42;;
53261;SDS011;39658;51.090;-1.786;2022-07-21T06:49:31;9.70;;;2.30;;
53261;SDS011;39658;51.090;-1.786;2022-07-21T06:51:58;11.95;;;2.13;;
53261;SDS011;39658;51.090;-1.786;2022-07-21T06:54:25;27.30;;;3.17;;
53261;SDS011;39658;51.090;-1.786;2022-07-21T06:56:52;12.18;;;3.25;;
53261;SDS011;39658;51.090;-1.786;2022-07-21T06:59:18;11.45;;;2.67;;
53261;SDS011;39658;51.090;-1.786;2022-07-21T07:01:45;15.87;;;2.87;;
53261;SDS011;39658;51.090;-1.786;2022-07-21T07:04:13;13.98;;;2.60;;
53261;SDS011;39658;51.090;-1.786;2022-07-21T07:06:40;15.68;;;2.75;;
53261;SDS011;39658;51.090;-1.786;2022-07-21T07:09:07;10.05;;;2.58;;
53261;SDS011;39658;51.090;-1.786;2022-07-21T07:11:33;8.18;;;2.65;;
53261;SDS011;39658;51.090;-1.786;2022-07-21T07:14:00;8.25;;;2.10;;
53261;SDS011;39658;51.090;-1.786;2022-07-21T07:16:27;7.80;;;2.35;;
53261;SDS011;39658;51.090;-1.786;2022-07-21T07:18:54;8.93;;;2.33;;
53261;SDS011;39658;51.090;-1.786;2022-07-21T07:21:22;7.32;;;2.30;;
53261;SDS011;39658;51.090;-1.786;2022-07-21T07:23:49;6.70;;;1.92;;
53261;SDS011;39658;51.090;-1.786;2022-07-21T07:26:15;10.00;;;2.10;;
53261;SDS011;39658;51.090;-1.786;2022-07-21T07:28:42;9.13;;;2.50;;
53261;SDS011;39658;51.090;-1.786;2022-07-21T07:31:09;8.70;;;2.22;;
53261;SDS011;39658;51.090;-1.786;2022-07-21T07:33:36;10.00;;;2.60;;
53261;SDS011;39658;51.090;-1.786;2022-07-21T07:36:03;6.38;;;2.17;;
53261;SDS011;39658;51.090;-1.786;2022-07-21T07:38:31;10.23;;;2.30;;
53261;SDS011;39658;51.090;-1.786;2022-07-21T07:40:58;8.57;;;2.28;;
53261;SDS011;39658;51.090;-1.786;2022-07-21T07:43:25;13.60;;;2.72;;
53261;SDS011;39658;51.090;-1.786;2022-07-21T07:45:52;9.02;;;2.70;;
53261;SDS011;39658;51.090;-1.786;2022-07-21T07:48:18;9.35;;;2.45;;
53261;SDS011;39658;51.090;-1.786;2022-07-21T07:50:45;9.05;;;2.08;;
53261;SDS011;39658;51.090;-1.786;2022-07-21T07:53:12;7.35;;;2.50;;
53261;SDS011;39658;51.090;-1.786;2022-07-21T07:55:40;8.82;;;2.40;;
53261;SDS011;39658;51.090;-1.786;2022-07-21T07:58:07;10.93;;;2.50;;
53261;SDS011;39658;51.090;-1.786;2022-07-21T08:00:34;7.28;;;2.40;;
53261;SDS011;39658;51.090;-1.786;2022-07-21T08:03:00;10.67;;;2.50;;
53261;SDS011;39658;51.090;-1.786;2022-07-21T08:05:27;9.80;;;2.92;;
53261;SDS011;39658;51.090;-1.786;2022-07-21T08:07:54;10.38;;;2.53;;
53261;SDS011;39658;51.090;-1.786;2022-07-21T08:10:21;9.55;;;2.63;;
53261;SDS011;39658;51.090;-1.786;2022-07-21T08:12:49;8.85;;;2.40;;
53261;SDS011;39658;51.090;-1.786;2022-07-21T08:15:16;11.65;;;2.40;;
53261;SDS011;39658;51.090;-1.786;2022-07-21T08:17:42;9.75;;;3.63;;
53261;SDS011;39658;51.090;-1.786;2022-07-21T08:20:10;10.27;;;2.70;;
53261;SDS011;39658;51.090;-1.786;2022-07-21T08:22:37;13.43;;;3.40;;
53261;SDS011;39658;51.090;-1.786;2022-07-21T08:25:04;8.60;;;2.28;;
53261;SDS011;39658;51.090;-1.786;2022-07-21T08:27:31;7.15;;;2.10;;
53261;SDS011;39658;51.090;-1.786;2022-07-21T08:29:59;8.25;;;2.40;;
53261;SDS011;39658;51.090;-1.786;2022-07-21T08:32:27;11.73;;;2.30;;
53261;SDS011;39658;51.090;-1.786;2022-07-21T08:34:53;12.38;;;2.45;;
53261;SDS011;39658;51.090;-1.786;2022-07-21T08:37:20;10.50;;;2.35;;
53261;SDS011;39658;51.090;-1.786;2022-07-21T08:39:47;8.43;;;2.10;;
53261;SDS011;39658;51.090;-1.786;2022-07-21T08:42:14;9.95;;;2.53;;
53261;SDS011;39658;51.090;-1.786;2022-07-21T08:44:41;10.52;;;2.45;;
53261;SDS011;39658;51.090;-1.786;2022-07-21T08:47:10;10.68;;;2.80;;
53261;SDS011;39658;51.090;-1.786;2022-07-21T08:49:37;32.78;;;4.15;;
53261;SDS011;39658;51.090;-1.786;2022-07-21T08:52:05;14.05;;;2.70;;
53261;SDS011;39658;51.090;-1.786;2022-07-21T08:54:32;9.82;;;2.40;;
53261;SDS011;39658;51.090;-1.786;2022-07-21T08:56:59;10.27;;;2.70;;
53261;SDS011;39658;51.090;-1.786;2022-07-21T08:59:26;9.02;;;2.20;;
53261;SDS011;39658;51.090;-1.786;2022-07-21T09:01:53;8.70;;;2.78;;
53261;SDS011;39658;51.090;-1.786;2022-07-21T09:04:22;7.43;;;2.60;;
53261;SDS011;39658;51.090;-1.786;2022-07-21T09:06:55;7.83;;;2.40;;
53261;SDS011;39658;51.090;-1.786;2022-07-21T09:09:23;9.03;;;2.50;;
53261;SDS011;39658;51.090;-1.786;2022-07-21T09:11:51;10.23;;;3.03;;
53261;SDS011;39658;51.090;-1.786;2022-07-21T09:14:19;11.57;;;2.63;;
53261;SDS011;39658;51.090;-1.786;2022-07-21T09:16:48;7.93;;;2.45;;
53261;SDS011;39658;51.090;-1.786;2022-07-21T09:19:17;8.40;;;2.47;;
53261;SDS011;39658;51.090;-1.786;2022-07-21T09:21:48;9.95;;;2.80;;
53261;SDS011;39658;51.090;-1.786;2022-07-21T09:24:17;9.65;;;2.72;;
53261;SDS011;39658;51.090;-1.786;2022-07-21T09:26:59;9.73;;;3.35;;
53261;SDS011;39658;51.090;-1.786;2022-07-21T09:29:32;12.05;;;3.17;;
53261;SDS011;39658;51.090;-1.786;2022-07-21T09:32:11;8.60;;;3.30;;
53261;SDS011;39658;51.090;-1.786;2022-07-21T09:34:39;8.07;;;2.75;;
53261;SDS011;39658;51.090;-1.786;2022-07-21T09:37:07;11.70;;;2.70;;
53261;SDS011;39658;51.090;-1.786;2022-07-21T09:39:41;9.25;;;2.70;;
53261;SDS011;39658;51.090;-1.786;2022-07-21T09:42:13;11.82;;;2.45;;
53261;SDS011;39658;51.090;-1.786;2022-07-21T09:44:43;7.97;;;2.40;;
53261;SDS011;39658;51.090;-1.786;2022-07-21T09:47:11;7.63;;;2.03;;
53261;SDS011;39658;51.090;-1.786;2022-07-21T09:49:40;12.57;;;2.50;;
53261;SDS011;39658;51.090;-1.786;2022-07-21T09:52:24;10.30;;;2.47;;
53261;SDS011;39658;51.090;-1.786;2022-07-21T09:54:54;6.30;;;1.95;;
53261;SDS011;39658;51.090;-1.786;2022-07-21T09:57:22;8.82;;;2.40;;
53261;SDS011;39658;51.090;-1.786;2022-07-21T09:59:49;16.20;;;2.97;;
53261;SDS011;39658;51.090;-1.786;2022-07-21T10:02:18;7.63;;;2.40;;
53261;SDS011;39658;51.090;-1.786;2022-07-21T10:04:48;9.52;;;2.10;;
53261;SDS011;39658;51.090;-1.786;2022-07-21T10:07:20;12.10;;;2.50;;
53261;SDS011;39658;51.090;-1.786;2022-07-21T10:09:49;11.90;;;2.78;;
53261;SDS011;39658;51.090;-1.786;2022-07-21T10:12:17;9.70;;;2.47;;
53261;SDS011;39658;51.090;-1.786;2022-07-21T10:14:44;9.20;;;2.50;;
53261;SDS011;39658;51.090;-1.786;2022-07-21T10:17:12;8.98;;;2.53;;
53261;SDS011;39658;51.090;-1.786;2022-07-21T10:19:42;10.10;;;3.10;;
53261;SDS011;39658;51.090;-1.786;2022-07-21T10:22:18;7.78;;;2.60;;
53261;SDS011;39658;51.090;-1.786;2022-07-21T10:24:53;4.72;;;1.75;;
53261;SDS011;39658;51.090;-1.786;2022-07-21T10:27:20;8.80;;;2.60;;
53261;SDS011;39658;51.090;-1.786;2022-07-21T10:29:54;14.73;;;3.58;;
53261;SDS011;39658;51.090;-1.786;2022-07-21T10:32:24;9.65;;;3.47;;
53261;SDS011;39658;51.090;-1.786;2022-07-21T10:34:53;10.80;;;2.92;;
53261;SDS011;39658;51.090;-1.786;2022-07-21T10:40:35;12.57;;;3.47;;
53261;SDS011;39658;51.090;-1.786;2022-07-21T10:46:02;12.15;;;3.63;;
53261;SDS011;39658;51.090;-1.786;2022-07-21T10:51:22;10.45;;;3.10;;
53261;SDS011;39658;51.090;-1.786;2022-07-21T11:02:41;11.45;;;3.60;;
53261;SDS011;39658;51.090;-1.786;2022-07-21T11:05:09;10.00;;;3.58;;
53261;SDS011;39658;51.090;-1.786;2022-07-21T11:10:38;8.05;;;2.90;;
53261;SDS011;39658;51.090;-1.786;2022-07-21T11:13:08;8.45;;;3.13;;
53261;SDS011;39658;51.090;-1.786;2022-07-21T11:18:30;10.68;;;4.10;;
53261;SDS011;39658;51.090;-1.786;2022-07-21T11:21:01;10.15;;;3.83;;
53261;SDS011;39658;51.090;-1.786;2022-07-21T11:23:39;10.05;;;3.83;;
53261;SDS011;39658;51.090;-1.786;2022-07-21T11:26:08;10.98;;;4.35;;
53261;SDS011;39658;51.090;-1.786;2022-07-21T11:28:38;12.77;;;4.30;;
53261;SDS011;39658;51.090;-1.786;2022-07-21T11:31:06;15.63;;;4.07;;
53261;SDS011;39658;51.090;-1.786;2022-07-21T11:33:34;11.68;;;4.20;;
53261;SDS011;39658;51.090;-1.786;2022-07-21T11:36:02;14.23;;;4.10;;
53261;SDS011;39658;51.090;-1.786;2022-07-21T11:38:29;11.77;;;4.72;;
53261;SDS011;39658;51.090;-1.786;2022-07-21T11:43:40;12.57;;;4.37;;
53261;SDS011;39658;51.090;-1.786;2022-07-21T11:46:07;8.85;;;3.65;;
53261;SDS011;39658;51.090;-1.786;2022-07-21T11:48:34;10.43;;;4.13;;
53261;SDS011;39658;51.090;-1.786;2022-07-21T11:51:01;9.95;;;3.90;;
53261;SDS011;39658;51.090;-1.786;2022-07-21T11:53:29;12.38;;;3.50;;
53261;SDS011;39658;51.090;-1.786;2022-07-21T11:55:56;10.65;;;3.53;;
53261;SDS011;39658;51.090;-1.786;2022-07-21T11:58:22;12.27;;;3.83;;
53261;SDS011;39658;51.090;-1.786;2022-07-21T12:01:03;14.77;;;4.45;;
53261;SDS011;39658;51.090;-1.786;2022-07-21T12:03:30;10.07;;;4.05;;
53261;SDS011;39658;51.090;-1.786;2022-07-21T12:05:57;13.50;;;3.88;;
53261;SDS011;39658;51.090;-1.786;2022-07-21T12:08:25;8.20;;;3.05;;
53261;SDS011;39658;51.090;-1.786;2022-07-21T12:11:03;12.82;;;3.80;;
53261;SDS011;39658;51.090;-1.786;2022-07-21T12:13:30;15.63;;;4.57;;
53261;SDS011;39658;51.090;-1.786;2022-07-21T12:16:18;16.35;;;4.20;;
53261;SDS011;39658;51.090;-1.786;2022-07-21T12:18:44;10.75;;;3.97;;
53261;SDS011;39658;51.090;-1.786;2022-07-21T12:21:11;9.93;;;3.60;;
53261;SDS011;39658;51.090;-1.786;2022-07-21T12:23:38;10.38;;;3.92;;
53261;SDS011;39658;51.090;-1.786;2022-07-21T12:26:05;15.40;;;3.85;;
53261;SDS011;39658;51.090;-1.786;2022-07-21T12:28:42;12.50;;;4.18;;
53261;SDS011;39658;51.090;-1.786;2022-07-21T12:31:11;11.93;;;4.15;;
53261;SDS011;39658;51.090;-1.786;2022-07-21T12:33:42;9.48;;;4.25;;
53261;SDS011;39658;51.090;-1.786;2022-07-21T12:36:09;14.63;;;4.45;;
53261;SDS011;39658;51.090;-1.786;2022-07-21T12:38:36;11.38;;;4.22;;
53261;SDS011;39658;51.090;-1.786;2022-07-21T12:41:04;11.50;;;4.75;;
53261;SDS011;39658;51.090;-1.786;2022-07-21T12:43:32;13.20;;;4.85;;
53261;SDS011;39658;51.090;-1.786;2022-07-21T12:45:59;14.18;;;4.15;;
53261;SDS011;39658;51.090;-1.786;2022-07-21T12:48:29;12.23;;;4.07;;
53261;SDS011;39658;51.090;-1.786;2022-07-21T12:51:02;9.75;;;4.25;;
53261;SDS011;39658;51.090;-1.786;2022-07-21T12:53:36;9.63;;;3.97;;
53261;SDS011;39658;51.090;-1.786;2022-07-21T12:56:05;10.18;;;4.30;;
53261;SDS011;39658;51.090;-1.786;2022-07-21T12:58:32;11.67;;;4.70;;
53261;SDS011;39658;51.090;-1.786;2022-07-21T13:00:59;12.00;;;4.65;;
53261;SDS011;39658;51.090;-1.786;2022-07-21T13:03:27;12.00;;;4.38;;
53261;SDS011;39658;51.090;-1.786;2022-07-21T13:05:55;12.57;;;3.92;;
53261;SDS011;39658;51.090;-1.786;2022-07-21T13:08:23;12.13;;;4.80;;
53261;SDS011;39658;51.090;-1.786;2022-07-21T13:10:50;14.88;;;4.40;;
53261;SDS011;39658;51.090;-1.786;2022-07-21T13:13:17;12.48;;;4.22;;
53261;SDS011;39658;51.090;-1.786;2022-07-21T13:15:44;9.02;;;3.80;;
53261;SDS011;39658;51.090;-1.786;2022-07-21T13:18:10;7.97;;;3.70;;
53261;SDS011;39658;51.090;-1.786;2022-07-21T13:20:37;14.48;;;3.90;;
53261;SDS011;39658;51.090;-1.786;2022-07-21T13:23:04;8.90;;;3.53;;
53261;SDS011;39658;51.090;-1.786;2022-07-21T13:25:32;11.90;;;3.85;;
53261;SDS011;39658;51.090;-1.786;2022-07-21T13:27:59;7.68;;;3.33;;
53261;SDS011;39658;51.090;-1.786;2022-07-21T13:30:26;11.23;;;3.45;;
53261;SDS011;39658;51.090;-1.786;2022-07-21T13:32:53;8.60;;;3.50;;
53261;SDS011;39658;51.090;-1.786;2022-07-21T13:35:20;11.95;;;3.70;;
53261;SDS011;39658;51.090;-1.786;2022-07-21T13:37:47;11.85;;;4.57;;
53261;SDS011;39658;51.090;-1.786;2022-07-21T13:40:14;10.70;;;4.28;;
53261;SDS011;39658;51.090;-1.786;2022-07-21T13:42:42;11.32;;;3.60;;
53261;SDS011;39658;51.090;-1.786;2022-07-21T13:45:09;12.40;;;4.40;;
53261;SDS011;39658;51.090;-1.786;2022-07-21T13:47:38;9.93;;;4.30;;
53261;SDS011;39658;51.090;-1.786;2022-07-21T13:50:05;15.10;;;4.78;;
53261;SDS011;39658;51.090;-1.786;2022-07-21T13:52:32;11.07;;;4.15;;
53261;SDS011;39658;51.090;-1.786;2022-07-21T13:54:59;10.93;;;4.22;;
53261;SDS011;39658;51.090;-1.786;2022-07-21T13:57:26;11.90;;;4.63;;
53261;SDS011;39658;51.090;-1.786;2022-07-21T13:59:54;13.27;;;5.23;;
53261;SDS011;39658;51.090;-1.786;2022-07-21T14:02:21;15.53;;;4.87;;
53261;SDS011;39658;51.090;-1.786;2022-07-21T14:04:48;17.85;;;4.97;;
53261;SDS011;39658;51.090;-1.786;2022-07-21T14:07:15;16.02;;;4.44;;
53261;SDS011;39658;51.090;-1.786;2022-07-21T14:09:43;13.52;;;4.45;;
53261;SDS011;39658;51.090;-1.786;2022-07-21T14:12:10;15.90;;;4.28;;
53261;SDS011;39658;51.090;-1.786;2022-07-21T14:14:37;10.93;;;3.90;;
53261;SDS011;39658;51.090;-1.786;2022-07-21T14:17:05;11.70;;;3.58;;
53261;SDS011;39658;51.090;-1.786;2022-07-21T14:19:32;13.20;;;4.18;;
53261;SDS011;39658;51.090;-1.786;2022-07-21T14:21:58;12.00;;;5.00;;
53261;SDS011;39658;51.090;-1.786;2022-07-21T14:24:25;10.27;;;4.15;;
53261;SDS011;39658;51.090;-1.786;2022-07-21T14:27:09;11.85;;;4.13;;
53261;SDS011;39658;51.090;-1.786;2022-07-21T14:29:36;9.32;;;4.07;;
53261;SDS011;39658;51.090;-1.786;2022-07-21T14:32:04;10.38;;;4.72;;
53261;SDS011;39658;51.090;-1.786;2022-07-21T14:34:31;12.88;;;4.85;;
53261;SDS011;39658;51.090;-1.786;2022-07-21T14:36:58;12.73;;;4.30;;
53261;SDS011;39658;51.090;-1.786;2022-07-21T14:39:25;12.70;;;4.68;;
53261;SDS011;39658;51.090;-1.786;2022-07-21T14:41:52;15.77;;;4.78;;
53261;SDS011;39658;51.090;-1.786;2022-07-21T14:44:19;15.52;;;4.65;;
53261;SDS011;39658;51.090;-1.786;2022-07-21T14:46:46;13.85;;;4.55;;
53261;SDS011;39658;51.090;-1.786;2022-07-21T14:49:14;13.07;;;4.50;;
53261;SDS011;39658;51.090;-1.786;2022-07-21T14:51:40;9.05;;;4.00;;
53261;SDS011;39658;51.090;-1.786;2022-07-21T14:54:07;12.18;;;4.47;;
53261;SDS011;39658;51.090;-1.786;2022-07-21T14:56:34;9.35;;;4.00;;
53261;SDS011;39658;51.090;-1.786;2022-07-21T14:59:01;14.13;;;3.85;;